sensor_id;sensor_type;location;lat;lon;timestamp;temperature;humidity
7666;DHT22;3875;46.562;4.898;2022-09-01T00:01:34;21.90;71.80
7666;DHT22;3875;46.562;4.898;2022-09-01T00:04:02;21.80;72.00
7666;DHT22;3875;46.562;4.898;2022-09-01T00:06:31;21.70;72.50
7666;DHT22;3875;46.562;4.898;2022-09-01T00:09:01;21.60;72.70
7666;DHT22;3875;46.562;4.898;2022-09-01T00:11:28;21.60;72.60
7666;DHT22;3875;46.562;4.898;2022-09-01T00:13:55;21.60;72.70
7666;DHT22;3875;46.562;4.898;2022-09-01T00:16:21;21.90;72.50
7666;DHT22;3875;46.562;4.898;2022-09-01T00:18:50;21.80;72.20
7666;DHT22;3875;46.562;4.898;2022-09-01T00:21:24;21.70;72.30
7666;DHT22;3875;46.562;4.898;2022-09-01T00:23:50;21.70;72.50
7666;DHT22;3875;46.562;4.898;2022-09-01T00:26:16;21.60;72.90
7666;DHT22;3875;46.562;4.898;2022-09-01T00:28:42;21.40;73.40
7666;DHT22;3875;46.562;4.898;2022-09-01T00:31:09;21.40;73.50
7666;DHT22;3875;46.562;4.898;2022-09-01T00:33:35;21.40;73.30
7666;DHT22;3875;46.562;4.898;2022-09-01T00:36:02;21.40;73.30
7666;DHT22;3875;46.562;4.898;2022-09-01T00:38:28;21.40;73.20
7666;DHT22;3875;46.562;4.898;2022-09-01T00:40:54;21.40;73.20
7666;DHT22;3875;46.562;4.898;2022-09-01T00:45:48;21.40;73.30
7666;DHT22;3875;46.562;4.898;2022-09-01T00:48:17;21.30;73.50
7666;DHT22;3875;46.562;4.898;2022-09-01T00:50:45;21.30;73.30
7666;DHT22;3875;46.562;4.898;2022-09-01T00:53:11;21.30;73.70
7666;DHT22;3875;46.562;4.898;2022-09-01T00:55:37;21.20;73.70
7666;DHT22;3875;46.562;4.898;2022-09-01T00:58:05;21.20;73.80
7666;DHT22;3875;46.562;4.898;2022-09-01T01:00:34;21.20;73.70
7666;DHT22;3875;46.562;4.898;2022-09-01T01:03:12;21.20;73.60
7666;DHT22;3875;46.562;4.898;2022-09-01T01:05:41;21.20;73.50
7666;DHT22;3875;46.562;4.898;2022-09-01T01:08:11;21.20;73.70
7666;DHT22;3875;46.562;4.898;2022-09-01T01:10:40;21.10;74.10
7666;DHT22;3875;46.562;4.898;2022-09-01T01:13:14;21.00;73.90
7666;DHT22;3875;46.562;4.898;2022-09-01T01:15:42;20.90;74.50
7666;DHT22;3875;46.562;4.898;2022-09-01T01:18:13;20.80;74.90
7666;DHT22;3875;46.562;4.898;2022-09-01T01:20:39;20.80;75.00
7666;DHT22;3875;46.562;4.898;2022-09-01T01:23:30;20.80;75.00
7666;DHT22;3875;46.562;4.898;2022-09-01T01:26:02;20.70;75.20
7666;DHT22;3875;46.562;4.898;2022-09-01T01:28:34;20.70;75.10
7666;DHT22;3875;46.562;4.898;2022-09-01T01:31:06;20.70;75.20
7666;DHT22;3875;46.562;4.898;2022-09-01T01:33:42;20.60;75.40
7666;DHT22;3875;46.562;4.898;2022-09-01T01:36:14;20.70;75.10
7666;DHT22;3875;46.562;4.898;2022-09-01T01:38:43;20.70;75.00
7666;DHT22;3875;46.562;4.898;2022-09-01T01:41:10;20.80;74.70
7666;DHT22;3875;46.562;4.898;2022-09-01T01:43:36;20.80;74.50
7666;DHT22;3875;46.562;4.898;2022-09-01T01:46:05;20.80;74.40
7666;DHT22;3875;46.562;4.898;2022-09-01T01:48:38;20.80;74.40
7666;DHT22;3875;46.562;4.898;2022-09-01T01:51:05;20.80;74.50
7666;DHT22;3875;46.562;4.898;2022-09-01T01:53:32;20.80;74.50
7666;DHT22;3875;46.562;4.898;2022-09-01T01:55:58;20.80;74.50
7666;DHT22;3875;46.562;4.898;2022-09-01T01:58:26;20.80;74.40
7666;DHT22;3875;46.562;4.898;2022-09-01T02:00:54;20.80;74.40
7666;DHT22;3875;46.562;4.898;2022-09-01T02:03:22;20.80;74.50
7666;DHT22;3875;46.562;4.898;2022-09-01T02:05:51;20.80;74.40
7666;DHT22;3875;46.562;4.898;2022-09-01T02:08:17;20.70;74.40
7666;DHT22;3875;46.562;4.898;2022-09-01T02:10:47;20.70;74.50
7666;DHT22;3875;46.562;4.898;2022-09-01T02:13:15;20.70;74.50
7666;DHT22;3875;46.562;4.898;2022-09-01T02:15:51;20.60;74.40
7666;DHT22;3875;46.562;4.898;2022-09-01T02:18:27;20.60;74.60
7666;DHT22;3875;46.562;4.898;2022-09-01T02:20:53;20.50;74.80
7666;DHT22;3875;46.562;4.898;2022-09-01T02:23:21;20.40;74.80
7666;DHT22;3875;46.562;4.898;2022-09-01T02:25:53;20.40;75.00
7666;DHT22;3875;46.562;4.898;2022-09-01T02:28:20;20.40;75.10
7666;DHT22;3875;46.562;4.898;2022-09-01T02:30:50;20.30;75.10
7666;DHT22;3875;46.562;4.898;2022-09-01T02:33:16;20.30;75.10
7666;DHT22;3875;46.562;4.898;2022-09-01T02:35:48;20.20;75.20
7666;DHT22;3875;46.562;4.898;2022-09-01T02:38:15;20.20;75.60
7666;DHT22;3875;46.562;4.898;2022-09-01T02:40:45;20.20;75.50
7666;DHT22;3875;46.562;4.898;2022-09-01T02:43:13;20.10;75.40
7666;DHT22;3875;46.562;4.898;2022-09-01T02:45:41;20.10;75.30
7666;DHT22;3875;46.562;4.898;2022-09-01T02:48:09;20.10;75.60
7666;DHT22;3875;46.562;4.898;2022-09-01T02:50:40;20.00;75.90
7666;DHT22;3875;46.562;4.898;2022-09-01T02:53:07;19.90;76.30
7666;DHT22;3875;46.562;4.898;2022-09-01T02:55:38;19.80;76.80
7666;DHT22;3875;46.562;4.898;2022-09-01T02:58:05;19.70;76.70
7666;DHT22;3875;46.562;4.898;2022-09-01T03:00:35;19.70;76.70
7666;DHT22;3875;46.562;4.898;2022-09-01T03:03:05;19.70;76.60
7666;DHT22;3875;46.562;4.898;2022-09-01T03:05:32;19.70;76.40
7666;DHT22;3875;46.562;4.898;2022-09-01T03:08:04;19.70;76.30
7666;DHT22;3875;46.562;4.898;2022-09-01T03:10:34;19.70;76.50
7666;DHT22;3875;46.562;4.898;2022-09-01T03:13:03;19.60;76.80
7666;DHT22;3875;46.562;4.898;2022-09-01T03:15:31;19.60;76.70
7666;DHT22;3875;46.562;4.898;2022-09-01T03:17:59;19.60;76.70
7666;DHT22;3875;46.562;4.898;2022-09-01T03:20:26;19.60;76.60
7666;DHT22;3875;46.562;4.898;2022-09-01T03:22:53;19.60;76.50
7666;DHT22;3875;46.562;4.898;2022-09-01T03:25:19;19.60;76.60
7666;DHT22;3875;46.562;4.898;2022-09-01T03:27:45;19.50;76.70
7666;DHT22;3875;46.562;4.898;2022-09-01T03:30:12;19.50;77.10
7666;DHT22;3875;46.562;4.898;2022-09-01T03:32:38;19.40;77.30
7666;DHT22;3875;46.562;4.898;2022-09-01T03:35:04;19.40;77.30
7666;DHT22;3875;46.562;4.898;2022-09-01T03:37:30;19.30;77.20
7666;DHT22;3875;46.562;4.898;2022-09-01T03:39:55;19.30;77.60
7666;DHT22;3875;46.562;4.898;2022-09-01T03:42:24;19.30;77.40
7666;DHT22;3875;46.562;4.898;2022-09-01T03:44:54;19.30;77.20
7666;DHT22;3875;46.562;4.898;2022-09-01T03:47:21;19.30;77.10
7666;DHT22;3875;46.562;4.898;2022-09-01T03:49:48;19.30;77.20
7666;DHT22;3875;46.562;4.898;2022-09-01T03:52:16;19.30;77.00
7666;DHT22;3875;46.562;4.898;2022-09-01T03:54:42;19.40;77.00
7666;DHT22;3875;46.562;4.898;2022-09-01T03:57:08;19.30;77.40
7666;DHT22;3875;46.562;4.898;2022-09-01T03:59:35;19.20;77.20
7666;DHT22;3875;46.562;4.898;2022-09-01T04:02:03;19.20;77.40
7666;DHT22;3875;46.562;4.898;2022-09-01T04:04:29;19.20;77.40
7666;DHT22;3875;46.562;4.898;2022-09-01T04:06:58;19.20;77.30
7666;DHT22;3875;46.562;4.898;2022-09-01T04:09:26;19.10;77.60
7666;DHT22;3875;46.562;4.898;2022-09-01T04:11:53;19.10;77.60
7666;DHT22;3875;46.562;4.898;2022-09-01T04:14:19;19.10;77.40
7666;DHT22;3875;46.562;4.898;2022-09-01T04:16:45;19.20;77.40
7666;DHT22;3875;46.562;4.898;2022-09-01T04:19:34;19.20;77.30
7666;DHT22;3875;46.562;4.898;2022-09-01T04:22:01;19.10;77.50
7666;DHT22;3875;46.562;4.898;2022-09-01T04:24:28;19.00;77.90
7666;DHT22;3875;46.562;4.898;2022-09-01T04:26:57;19.00;78.00
7666;DHT22;3875;46.562;4.898;2022-09-01T04:29:25;19.00;77.90
7666;DHT22;3875;46.562;4.898;2022-09-01T04:31:55;19.00;77.80
7666;DHT22;3875;46.562;4.898;2022-09-01T04:34:22;19.00;77.80
7666;DHT22;3875;46.562;4.898;2022-09-01T04:36:49;19.00;77.70
7666;DHT22;3875;46.562;4.898;2022-09-01T04:39:22;19.00;77.80
7666;DHT22;3875;46.562;4.898;2022-09-01T04:41:48;18.90;77.90
7666;DHT22;3875;46.562;4.898;2022-09-01T04:44:16;18.90;78.00
7666;DHT22;3875;46.562;4.898;2022-09-01T04:46:44;18.90;77.90
7666;DHT22;3875;46.562;4.898;2022-09-01T04:49:16;18.80;78.10
7666;DHT22;3875;46.562;4.898;2022-09-01T04:51:49;18.80;78.30
7666;DHT22;3875;46.562;4.898;2022-09-01T04:54:15;18.80;78.10
7666;DHT22;3875;46.562;4.898;2022-09-01T04:56:43;18.80;78.20
7666;DHT22;3875;46.562;4.898;2022-09-01T04:59:11;18.80;78.30
7666;DHT22;3875;46.562;4.898;2022-09-01T05:01:38;18.80;78.10
7666;DHT22;3875;46.562;4.898;2022-09-01T05:04:29;18.80;78.20
7666;DHT22;3875;46.562;4.898;2022-09-01T05:07:00;18.80;78.40
7666;DHT22;3875;46.562;4.898;2022-09-01T05:09:32;18.80;78.40
7666;DHT22;3875;46.562;4.898;2022-09-01T05:12:00;18.90;78.30
7666;DHT22;3875;46.562;4.898;2022-09-01T05:14:44;18.80;78.10
7666;DHT22;3875;46.562;4.898;2022-09-01T05:17:13;18.90;78.20
7666;DHT22;3875;46.562;4.898;2022-09-01T05:19:42;18.80;78.40
7666;DHT22;3875;46.562;4.898;2022-09-01T05:22:09;18.80;78.40
7666;DHT22;3875;46.562;4.898;2022-09-01T05:24:36;18.80;78.60
7666;DHT22;3875;46.562;4.898;2022-09-01T05:27:06;18.90;78.50
7666;DHT22;3875;46.562;4.898;2022-09-01T05:29:32;18.80;79.10
7666;DHT22;3875;46.562;4.898;2022-09-01T05:31:59;18.80;79.10
7666;DHT22;3875;46.562;4.898;2022-09-01T05:34:30;18.80;79.40
7666;DHT22;3875;46.562;4.898;2022-09-01T05:37:00;18.80;79.20
7666;DHT22;3875;46.562;4.898;2022-09-01T05:39:27;18.80;79.10
7666;DHT22;3875;46.562;4.898;2022-09-01T05:41:53;18.90;79.10
7666;DHT22;3875;46.562;4.898;2022-09-01T05:44:20;18.90;79.10
7666;DHT22;3875;46.562;4.898;2022-09-01T05:46:49;19.00;79.30
7666;DHT22;3875;46.562;4.898;2022-09-01T05:49:15;19.00;79.70
7666;DHT22;3875;46.562;4.898;2022-09-01T05:51:45;19.00;79.80
7666;DHT22;3875;46.562;4.898;2022-09-01T05:54:15;19.00;80.20
7666;DHT22;3875;46.562;4.898;2022-09-01T05:56:42;18.90;81.10
7666;DHT22;3875;46.562;4.898;2022-09-01T05:59:08;18.90;81.40
7666;DHT22;3875;46.562;4.898;2022-09-01T06:01:36;18.90;81.40
7666;DHT22;3875;46.562;4.898;2022-09-01T06:04:08;19.00;80.90
7666;DHT22;3875;46.562;4.898;2022-09-01T06:06:45;19.00;81.10
7666;DHT22;3875;46.562;4.898;2022-09-01T06:09:14;19.10;80.70
7666;DHT22;3875;46.562;4.898;2022-09-01T06:11:43;19.20;80.90
7666;DHT22;3875;46.562;4.898;2022-09-01T06:14:12;19.30;80.90
7666;DHT22;3875;46.562;4.898;2022-09-01T06:16:38;19.40;80.40
7666;DHT22;3875;46.562;4.898;2022-09-01T06:19:04;19.50;80.70
7666;DHT22;3875;46.562;4.898;2022-09-01T06:21:30;19.60;80.60
7666;DHT22;3875;46.562;4.898;2022-09-01T06:23:57;19.60;80.40
7666;DHT22;3875;46.562;4.898;2022-09-01T06:26:24;19.60;81.00
7666;DHT22;3875;46.562;4.898;2022-09-01T06:29:01;19.70;81.00
7666;DHT22;3875;46.562;4.898;2022-09-01T06:31:30;19.70;81.00
7666;DHT22;3875;46.562;4.898;2022-09-01T06:34:00;19.70;81.10
7666;DHT22;3875;46.562;4.898;2022-09-01T06:36:27;19.80;80.80
7666;DHT22;3875;46.562;4.898;2022-09-01T06:38:54;19.80;81.00
7666;DHT22;3875;46.562;4.898;2022-09-01T06:41:21;19.80;82.20
7666;DHT22;3875;46.562;4.898;2022-09-01T06:43:50;19.80;82.20
7666;DHT22;3875;46.562;4.898;2022-09-01T06:46:19;19.80;82.40
7666;DHT22;3875;46.562;4.898;2022-09-01T06:48:46;19.70;82.50
7666;DHT22;3875;46.562;4.898;2022-09-01T06:51:17;19.70;82.70
7666;DHT22;3875;46.562;4.898;2022-09-01T06:53:45;19.80;82.40
7666;DHT22;3875;46.562;4.898;2022-09-01T06:56:14;19.90;82.30
7666;DHT22;3875;46.562;4.898;2022-09-01T06:58:42;20.10;82.30
7666;DHT22;3875;46.562;4.898;2022-09-01T07:01:11;20.10;81.60
7666;DHT22;3875;46.562;4.898;2022-09-01T07:03:40;20.10;81.70
7666;DHT22;3875;46.562;4.898;2022-09-01T07:06:06;20.00;81.90
7666;DHT22;3875;46.562;4.898;2022-09-01T07:08:35;20.00;81.60
7666;DHT22;3875;46.562;4.898;2022-09-01T07:11:05;20.10;81.80
7666;DHT22;3875;46.562;4.898;2022-09-01T07:13:32;20.10;81.40
7666;DHT22;3875;46.562;4.898;2022-09-01T07:16:00;20.30;81.00
7666;DHT22;3875;46.562;4.898;2022-09-01T07:18:29;20.40;80.70
7666;DHT22;3875;46.562;4.898;2022-09-01T07:20:55;20.60;80.70
7666;DHT22;3875;46.562;4.898;2022-09-01T07:23:21;20.60;80.30
7666;DHT22;3875;46.562;4.898;2022-09-01T07:25:51;20.80;80.10
7666;DHT22;3875;46.562;4.898;2022-09-01T07:28:21;20.90;79.80
7666;DHT22;3875;46.562;4.898;2022-09-01T07:30:54;21.20;79.40
7666;DHT22;3875;46.562;4.898;2022-09-01T07:33:21;21.30;78.70
7666;DHT22;3875;46.562;4.898;2022-09-01T07:35:50;21.50;77.90
7666;DHT22;3875;46.562;4.898;2022-09-01T07:38:21;21.50;77.10
7666;DHT22;3875;46.562;4.898;2022-09-01T07:40:47;21.40;77.90
7666;DHT22;3875;46.562;4.898;2022-09-01T07:43:23;21.50;77.50
7666;DHT22;3875;46.562;4.898;2022-09-01T07:45:52;21.70;77.50
7666;DHT22;3875;46.562;4.898;2022-09-01T07:48:21;21.80;77.10
7666;DHT22;3875;46.562;4.898;2022-09-01T07:50:49;21.90;77.00
7666;DHT22;3875;46.562;4.898;2022-09-01T07:53:19;22.10;76.60
7666;DHT22;3875;46.562;4.898;2022-09-01T07:55:48;22.20;75.90
7666;DHT22;3875;46.562;4.898;2022-09-01T07:58:16;22.30;75.50
7666;DHT22;3875;46.562;4.898;2022-09-01T08:00:43;22.40;75.40
7666;DHT22;3875;46.562;4.898;2022-09-01T08:03:10;22.50;75.40
7666;DHT22;3875;46.562;4.898;2022-09-01T08:05:35;22.60;75.60
7666;DHT22;3875;46.562;4.898;2022-09-01T08:08:02;22.90;74.70
7666;DHT22;3875;46.562;4.898;2022-09-01T08:10:28;22.90;74.00
7666;DHT22;3875;46.562;4.898;2022-09-01T08:12:54;23.10;74.20
7666;DHT22;3875;46.562;4.898;2022-09-01T08:15:19;23.40;73.40
7666;DHT22;3875;46.562;4.898;2022-09-01T08:17:45;23.50;73.20
7666;DHT22;3875;46.562;4.898;2022-09-01T08:20:11;23.40;72.80
7666;DHT22;3875;46.562;4.898;2022-09-01T08:22:37;23.50;72.70
7666;DHT22;3875;46.562;4.898;2022-09-01T08:25:08;23.40;71.20
7666;DHT22;3875;46.562;4.898;2022-09-01T08:27:36;23.20;72.60
7666;DHT22;3875;46.562;4.898;2022-09-01T08:30:05;23.20;73.00
7666;DHT22;3875;46.562;4.898;2022-09-01T08:32:32;23.40;72.50
7666;DHT22;3875;46.562;4.898;2022-09-01T08:34:59;23.60;72.30
7666;DHT22;3875;46.562;4.898;2022-09-01T08:37:25;23.80;71.40
7666;DHT22;3875;46.562;4.898;2022-09-01T08:39:51;24.10;70.80
7666;DHT22;3875;46.562;4.898;2022-09-01T08:43:09;24.20;70.50
7666;DHT22;3875;46.562;4.898;2022-09-01T08:45:31;24.30;69.50
7666;DHT22;3875;46.562;4.898;2022-09-01T08:48:10;24.30;68.80
7666;DHT22;3875;46.562;4.898;2022-09-01T08:50:38;24.40;68.40
7666;DHT22;3875;46.562;4.898;2022-09-01T08:53:16;24.40;69.30
7666;DHT22;3875;46.562;4.898;2022-09-01T08:55:48;24.60;69.00
7666;DHT22;3875;46.562;4.898;2022-09-01T08:58:16;24.80;68.40
7666;DHT22;3875;46.562;4.898;2022-09-01T09:00:45;25.00;67.80
7666;DHT22;3875;46.562;4.898;2022-09-01T09:03:52;25.20;67.70
7666;DHT22;3875;46.562;4.898;2022-09-01T09:09:15;25.40;66.60
7666;DHT22;3875;46.562;4.898;2022-09-01T09:12:08;25.50;66.00
7666;DHT22;3875;46.562;4.898;2022-09-01T09:14:58;25.50;65.80
7666;DHT22;3875;46.562;4.898;2022-09-01T09:17:33;25.50;65.50
7666;DHT22;3875;46.562;4.898;2022-09-01T09:20:01;25.50;65.70
7666;DHT22;3875;46.562;4.898;2022-09-01T09:22:28;25.60;65.60
7666;DHT22;3875;46.562;4.898;2022-09-01T09:25:13;25.70;65.00
7666;DHT22;3875;46.562;4.898;2022-09-01T09:27:42;25.90;65.20
7666;DHT22;3875;46.562;4.898;2022-09-01T09:30:14;26.20;64.60
7666;DHT22;3875;46.562;4.898;2022-09-01T09:32:50;26.20;64.30
7666;DHT22;3875;46.562;4.898;2022-09-01T09:35:27;26.30;64.80
7666;DHT22;3875;46.562;4.898;2022-09-01T09:37:54;26.60;63.70
7666;DHT22;3875;46.562;4.898;2022-09-01T09:40:29;26.90;63.60
7666;DHT22;3875;46.562;4.898;2022-09-01T09:47:52;27.20;62.60
7666;DHT22;3875;46.562;4.898;2022-09-01T09:50:30;27.40;61.80
7666;DHT22;3875;46.562;4.898;2022-09-01T09:55:52;27.60;60.90
7666;DHT22;3875;46.562;4.898;2022-09-01T09:58:20;27.80;61.20
7666;DHT22;3875;46.562;4.898;2022-09-01T10:00:58;28.00;61.20
7666;DHT22;3875;46.562;4.898;2022-09-01T10:03:52;28.40;60.40
7666;DHT22;3875;46.562;4.898;2022-09-01T10:06:40;28.70;58.60
7666;DHT22;3875;46.562;4.898;2022-09-01T10:11:51;28.60;58.90
7666;DHT22;3875;46.562;4.898;2022-09-01T10:14:23;28.90;58.30
7666;DHT22;3875;46.562;4.898;2022-09-01T10:16:57;29.20;58.00
7666;DHT22;3875;46.562;4.898;2022-09-01T10:19:25;29.10;57.00
7666;DHT22;3875;46.562;4.898;2022-09-01T10:21:53;29.20;58.10
7666;DHT22;3875;46.562;4.898;2022-09-01T10:24:31;29.60;57.90
7666;DHT22;3875;46.562;4.898;2022-09-01T10:27:18;29.80;56.00
7666;DHT22;3875;46.562;4.898;2022-09-01T10:29:46;29.80;56.50
7666;DHT22;3875;46.562;4.898;2022-09-01T10:32:25;29.80;56.10
7666;DHT22;3875;46.562;4.898;2022-09-01T10:34:52;29.70;56.00
7666;DHT22;3875;46.562;4.898;2022-09-01T10:37:18;29.60;55.80
7666;DHT22;3875;46.562;4.898;2022-09-01T10:40:10;29.80;56.20
7666;DHT22;3875;46.562;4.898;2022-09-01T10:42:36;30.20;55.40
7666;DHT22;3875;46.562;4.898;2022-09-01T10:45:03;30.40;55.00
7666;DHT22;3875;46.562;4.898;2022-09-01T10:47:31;30.80;54.70
7666;DHT22;3875;46.562;4.898;2022-09-01T10:50:24;30.90;52.60
7666;DHT22;3875;46.562;4.898;2022-09-01T10:52:56;30.70;52.60
7666;DHT22;3875;46.562;4.898;2022-09-01T10:55:36;30.30;53.60
7666;DHT22;3875;46.562;4.898;2022-09-01T10:58:29;30.50;54.30
7666;DHT22;3875;46.562;4.898;2022-09-01T11:01:00;30.80;52.80
7666;DHT22;3875;46.562;4.898;2022-09-01T11:03:36;30.50;53.90
7666;DHT22;3875;46.562;4.898;2022-09-01T11:06:07;30.40;53.90
7666;DHT22;3875;46.562;4.898;2022-09-01T11:11:20;30.40;52.50
7666;DHT22;3875;46.562;4.898;2022-09-01T11:13:50;30.70;53.10
7666;DHT22;3875;46.562;4.898;2022-09-01T11:16:36;30.90;52.50
7666;DHT22;3875;46.562;4.898;2022-09-01T11:19:55;31.10;51.40
7666;DHT22;3875;46.562;4.898;2022-09-01T11:28:08;31.50;51.10
7666;DHT22;3875;46.562;4.898;2022-09-01T11:30:46;31.30;51.50
7666;DHT22;3875;46.562;4.898;2022-09-01T11:33:27;31.50;52.20
7666;DHT22;3875;46.562;4.898;2022-09-01T11:36:10;31.50;51.00
7666;DHT22;3875;46.562;4.898;2022-09-01T11:38:47;31.40;50.60
7666;DHT22;3875;46.562;4.898;2022-09-01T11:41:29;31.60;49.80
7666;DHT22;3875;46.562;4.898;2022-09-01T11:43:59;31.80;50.20
7666;DHT22;3875;46.562;4.898;2022-09-01T11:46:33;31.60;50.30
7666;DHT22;3875;46.562;4.898;2022-09-01T11:49:06;31.80;51.30
7666;DHT22;3875;46.562;4.898;2022-09-01T11:51:45;32.10;49.20
7666;DHT22;3875;46.562;4.898;2022-09-01T11:54:12;31.90;49.70
7666;DHT22;3875;46.562;4.898;2022-09-01T11:56:38;31.80;50.00
7666;DHT22;3875;46.562;4.898;2022-09-01T11:59:04;31.90;49.20
7666;DHT22;3875;46.562;4.898;2022-09-01T12:01:35;32.10;49.70
7666;DHT22;3875;46.562;4.898;2022-09-01T12:04:24;32.10;49.80
7666;DHT22;3875;46.562;4.898;2022-09-01T12:07:04;32.50;48.90
7666;DHT22;3875;46.562;4.898;2022-09-01T12:09:37;32.40;48.40
7666;DHT22;3875;46.562;4.898;2022-09-01T12:12:13;32.30;48.60
7666;DHT22;3875;46.562;4.898;2022-09-01T12:15:10;32.30;48.40
7666;DHT22;3875;46.562;4.898;2022-09-01T12:17:41;32.30;48.00
7666;DHT22;3875;46.562;4.898;2022-09-01T12:20:20;32.50;48.20
7666;DHT22;3875;46.562;4.898;2022-09-01T12:22:46;32.70;47.30
7666;DHT22;3875;46.562;4.898;2022-09-01T12:27:49;32.70;47.30
7666;DHT22;3875;46.562;4.898;2022-09-01T12:30:15;32.60;47.20
7666;DHT22;3875;46.562;4.898;2022-09-01T12:32:41;32.70;47.10
7666;DHT22;3875;46.562;4.898;2022-09-01T12:35:27;32.50;47.20
7666;DHT22;3875;46.562;4.898;2022-09-01T12:40:52;32.80;47.20
7666;DHT22;3875;46.562;4.898;2022-09-01T12:43:29;33.00;47.70
7666;DHT22;3875;46.562;4.898;2022-09-01T12:45:55;33.20;46.60
7666;DHT22;3875;46.562;4.898;2022-09-01T12:48:38;33.10;46.70
7666;DHT22;3875;46.562;4.898;2022-09-01T12:51:22;33.10;46.80
7666;DHT22;3875;46.562;4.898;2022-09-01T12:53:58;33.30;46.10
7666;DHT22;3875;46.562;4.898;2022-09-01T12:56:35;33.00;45.70
7666;DHT22;3875;46.562;4.898;2022-09-01T12:59:14;32.80;46.90
7666;DHT22;3875;46.562;4.898;2022-09-01T13:01:44;32.70;46.00
7666;DHT22;3875;46.562;4.898;2022-09-01T13:06:48;32.60;46.40
7666;DHT22;3875;46.562;4.898;2022-09-01T13:09:14;32.90;46.20
7666;DHT22;3875;46.562;4.898;2022-09-01T13:11:41;33.10;46.20
7666;DHT22;3875;46.562;4.898;2022-09-01T13:14:08;33.20;45.90
7666;DHT22;3875;46.562;4.898;2022-09-01T13:16:34;33.10;45.30
7666;DHT22;3875;46.562;4.898;2022-09-01T13:19:02;33.00;44.30
7666;DHT22;3875;46.562;4.898;2022-09-01T13:21:28;33.00;44.90
7666;DHT22;3875;46.562;4.898;2022-09-01T13:23:55;33.00;45.00
7666;DHT22;3875;46.562;4.898;2022-09-01T13:26:21;32.90;44.00
7666;DHT22;3875;46.562;4.898;2022-09-01T13:28:47;32.70;44.30
7666;DHT22;3875;46.562;4.898;2022-09-01T13:31:12;32.80;45.00
7666;DHT22;3875;46.562;4.898;2022-09-01T13:33:39;32.80;43.80
7666;DHT22;3875;46.562;4.898;2022-09-01T13:36:05;32.90;44.90
7666;DHT22;3875;46.562;4.898;2022-09-01T13:38:31;33.00;44.60
7666;DHT22;3875;46.562;4.898;2022-09-01T13:40:58;33.00;43.70
7666;DHT22;3875;46.562;4.898;2022-09-01T13:43:25;32.80;44.90
7666;DHT22;3875;46.562;4.898;2022-09-01T13:45:52;33.00;45.60
7666;DHT22;3875;46.562;4.898;2022-09-01T13:48:18;33.10;44.40
7666;DHT22;3875;46.562;4.898;2022-09-01T13:50:46;33.20;45.00
7666;DHT22;3875;46.562;4.898;2022-09-01T13:53:14;33.40;44.50
7666;DHT22;3875;46.562;4.898;2022-09-01T13:55:40;33.40;44.60
7666;DHT22;3875;46.562;4.898;2022-09-01T13:58:06;33.00;44.70
7666;DHT22;3875;46.562;4.898;2022-09-01T14:00:36;32.80;44.30
7666;DHT22;3875;46.562;4.898;2022-09-01T14:03:06;32.40;44.30
7666;DHT22;3875;46.562;4.898;2022-09-01T14:05:35;32.00;45.20
7666;DHT22;3875;46.562;4.898;2022-09-01T14:08:03;31.80;45.30
7666;DHT22;3875;46.562;4.898;2022-09-01T14:10:29;31.70;45.60
7666;DHT22;3875;46.562;4.898;2022-09-01T14:12:59;32.00;45.30
7666;DHT22;3875;46.562;4.898;2022-09-01T14:15:25;32.00;43.90
7666;DHT22;3875;46.562;4.898;2022-09-01T14:17:53;31.90;44.40
7666;DHT22;3875;46.562;4.898;2022-09-01T14:20:24;31.90;45.20
7666;DHT22;3875;46.562;4.898;2022-09-01T14:22:50;32.10;45.40
7666;DHT22;3875;46.562;4.898;2022-09-01T14:25:18;32.20;44.30
7666;DHT22;3875;46.562;4.898;2022-09-01T14:27:44;31.90;44.20
7666;DHT22;3875;46.562;4.898;2022-09-01T14:30:15;31.80;44.70
7666;DHT22;3875;46.562;4.898;2022-09-01T14:32:41;31.80;44.90
7666;DHT22;3875;46.562;4.898;2022-09-01T14:35:07;32.00;45.00
7666;DHT22;3875;46.562;4.898;2022-09-01T14:37:35;32.00;45.10
7666;DHT22;3875;46.562;4.898;2022-09-01T14:40:02;32.10;44.60
7666;DHT22;3875;46.562;4.898;2022-09-01T14:42:28;32.00;45.20
7666;DHT22;3875;46.562;4.898;2022-09-01T14:44:56;31.60;44.80
7666;DHT22;3875;46.562;4.898;2022-09-01T14:47:22;31.20;45.10
7666;DHT22;3875;46.562;4.898;2022-09-01T14:49:53;31.10;45.50
7666;DHT22;3875;46.562;4.898;2022-09-01T14:52:19;31.20;45.40
7666;DHT22;3875;46.562;4.898;2022-09-01T14:54:46;31.10;45.30
7666;DHT22;3875;46.562;4.898;2022-09-01T14:57:13;30.80;45.50
7666;DHT22;3875;46.562;4.898;2022-09-01T14:59:39;30.90;46.20
7666;DHT22;3875;46.562;4.898;2022-09-01T15:02:07;31.10;45.70
7666;DHT22;3875;46.562;4.898;2022-09-01T15:04:33;31.20;45.70
7666;DHT22;3875;46.562;4.898;2022-09-01T15:07:00;31.30;44.80
7666;DHT22;3875;46.562;4.898;2022-09-01T15:09:31;31.30;44.70
7666;DHT22;3875;46.562;4.898;2022-09-01T15:11:57;31.20;44.50
7666;DHT22;3875;46.562;4.898;2022-09-01T15:14:23;31.00;44.10
7666;DHT22;3875;46.562;4.898;2022-09-01T15:16:49;31.00;44.80
7666;DHT22;3875;46.562;4.898;2022-09-01T15:19:15;31.00;44.00
7666;DHT22;3875;46.562;4.898;2022-09-01T15:21:42;31.00;44.30
7666;DHT22;3875;46.562;4.898;2022-09-01T15:24:09;31.00;43.60
7666;DHT22;3875;46.562;4.898;2022-09-01T15:26:36;31.00;44.20
7666;DHT22;3875;46.562;4.898;2022-09-01T15:29:03;31.00;44.40
7666;DHT22;3875;46.562;4.898;2022-09-01T15:31:30;31.00;44.50
7666;DHT22;3875;46.562;4.898;2022-09-01T15:33:59;31.00;44.30
7666;DHT22;3875;46.562;4.898;2022-09-01T15:36:27;31.10;44.80
7666;DHT22;3875;46.562;4.898;2022-09-01T15:38:54;31.10;45.10
7666;DHT22;3875;46.562;4.898;2022-09-01T15:41:26;31.30;45.00
7666;DHT22;3875;46.562;4.898;2022-09-01T15:43:52;31.30;44.60
7666;DHT22;3875;46.562;4.898;2022-09-01T15:46:19;31.10;44.50
7666;DHT22;3875;46.562;4.898;2022-09-01T15:48:45;31.00;44.90
7666;DHT22;3875;46.562;4.898;2022-09-01T15:53:55;30.80;45.30
7666;DHT22;3875;46.562;4.898;2022-09-01T15:56:21;30.80;45.50
7666;DHT22;3875;46.562;4.898;2022-09-01T15:58:48;30.50;45.30
7666;DHT22;3875;46.562;4.898;2022-09-01T16:01:15;30.40;46.20
7666;DHT22;3875;46.562;4.898;2022-09-01T16:03:41;30.40;46.10
7666;DHT22;3875;46.562;4.898;2022-09-01T16:06:07;30.40;45.70
7666;DHT22;3875;46.562;4.898;2022-09-01T16:08:34;30.40;45.70
7666;DHT22;3875;46.562;4.898;2022-09-01T16:11:00;30.40;45.80
7666;DHT22;3875;46.562;4.898;2022-09-01T16:13:35;30.40;46.10
7666;DHT22;3875;46.562;4.898;2022-09-01T16:24:43;30.30;45.80
7666;DHT22;3875;46.562;4.898;2022-09-01T16:27:13;30.00;46.10
7666;DHT22;3875;46.562;4.898;2022-09-01T16:29:52;29.70;46.80
7666;DHT22;3875;46.562;4.898;2022-09-01T16:32:19;29.60;46.70
7666;DHT22;3875;46.562;4.898;2022-09-01T16:34:48;29.40;47.20
7666;DHT22;3875;46.562;4.898;2022-09-01T16:51:51;33.70;43.10
7666;DHT22;3875;46.562;4.898;2022-09-01T16:57:22;33.50;42.40
7666;DHT22;3875;46.562;4.898;2022-09-01T16:59:57;32.00;44.50
7666;DHT22;3875;46.562;4.898;2022-09-01T17:02:33;31.00;45.80
7666;DHT22;3875;46.562;4.898;2022-09-01T17:10:37;29.50;48.10
7666;DHT22;3875;46.562;4.898;2022-09-01T17:15:42;29.10;49.00
7666;DHT22;3875;46.562;4.898;2022-09-01T17:18:16;29.00;49.40
7666;DHT22;3875;46.562;4.898;2022-09-01T17:20:47;28.90;49.50
7666;DHT22;3875;46.562;4.898;2022-09-01T17:23:19;28.90;49.70
7666;DHT22;3875;46.562;4.898;2022-09-01T17:25:53;28.80;50.00
7666;DHT22;3875;46.562;4.898;2022-09-01T17:28:26;28.70;50.00
7666;DHT22;3875;46.562;4.898;2022-09-01T17:31:13;28.60;49.90